sensor_id;sensor_type;location;lat;lon;timestamp;P1;durP1;ratioP1;P2;durP2;ratioP2
1953;SDS011;977;42.704;23.354;2022-07-23T08:15:47;7.23;;;6.50;;
1953;SDS011;977;42.704;23.354;2022-07-23T08:18:13;15.00;;;5.80;;
1953;SDS011;977;42.704;23.354;2022-07-23T08:20:39;18.97;;;7.20;;
1953;SDS011;977;42.704;23.354;2022-07-23T08:23:07;5.80;;;5.20;;
1953;SDS011;977;42.704;23.354;2022-07-23T08:25:35;5.80;;;4.40;;
1953;SDS011;977;42.704;23.354;2022-07-23T08:28:04;4.50;;;4.10;;
1953;SDS011;977;42.704;23.354;2022-07-23T08:30:31;6.13;;;4.80;;
1953;SDS011;977;42.704;23.354;2022-07-23T08:33:01;4.33;;;3.97;;
1953;SDS011;977;42.704;23.354;2022-07-23T08:35:33;4.73;;;4.33;;
1953;SDS011;977;42.704;23.354;2022-07-23T08:38:00;7.50;;;5.03;;
1953;SDS011;977;42.704;23.354;2022-07-23T08:40:28;5.23;;;4.73;;
1953;SDS011;977;42.704;23.354;2022-07-23T08:42:55;5.60;;;4.70;;
1953;SDS011;977;42.704;23.354;2022-07-23T08:45:21;11.10;;;4.27;;
1953;SDS011;977;42.704;23.354;2022-07-23T08:47:52;4.67;;;4.00;;
1953;SDS011;977;42.704;23.354;2022-07-23T08:50:19;6.03;;;4.50;;
1953;SDS011;977;42.704;23.354;2022-07-23T08:52:46;5.37;;;4.57;;
1953;SDS011;977;42.704;23.354;2022-07-23T08:55:13;4.27;;;3.80;;
1953;SDS011;977;42.704;23.354;2022-07-23T08:57:39;4.60;;;4.20;;
1953;SDS011;977;42.704;23.354;2022-07-23T09:00:05;6.70;;;5.20;;
1953;SDS011;977;42.704;23.354;2022-07-23T09:02:37;4.37;;;3.50;;
1953;SDS011;977;42.704;23.354;2022-07-23T09:05:04;7.70;;;4.10;;
1953;SDS011;977;42.704;23.354;2022-07-23T09:07:29;5.40;;;4.83;;
1953;SDS011;977;42.704;23.354;2022-07-23T09:10:08;6.27;;;4.80;;
1953;SDS011;977;42.704;23.354;2022-07-23T09:12:35;6.80;;;4.50;;
1953;SDS011;977;42.704;23.354;2022-07-23T09:15:05;8.03;;;4.80;;
1953;SDS011;977;42.704;23.354;2022-07-23T09:17:36;5.00;;;4.60;;
1953;SDS011;977;42.704;23.354;2022-07-23T09:20:11;5.00;;;3.70;;
1953;SDS011;977;42.704;23.354;2022-07-23T09:22:45;4.90;;;3.87;;
1953;SDS011;977;42.704;23.354;2022-07-23T09:25:16;5.80;;;4.27;;
1953;SDS011;977;42.704;23.354;2022-07-23T09:27:47;4.93;;;4.53;;
1953;SDS011;977;42.704;23.354;2022-07-23T09:30:15;4.70;;;4.40;;
1953;SDS011;977;42.704;23.354;2022-07-23T09:32:41;7.97;;;5.13;;
1953;SDS011;977;42.704;23.354;2022-07-23T09:35:07;4.50;;;4.10;;
1953;SDS011;977;42.704;23.354;2022-07-23T09:37:33;6.53;;;4.83;;
1953;SDS011;977;42.704;23.354;2022-07-23T09:40:07;7.40;;;4.40;;
1953;SDS011;977;42.704;23.354;2022-07-23T09:42:34;7.00;;;4.33;;
1953;SDS011;977;42.704;23.354;2022-07-23T09:45:00;5.93;;;4.70;;
1953;SDS011;977;42.704;23.354;2022-07-23T09:47:27;4.73;;;3.27;;
1953;SDS011;977;42.704;23.354;2022-07-23T09:52:35;5.17;;;4.03;;
1953;SDS011;977;42.704;23.354;2022-07-23T09:55:07;3.93;;;3.63;;
1953;SDS011;977;42.704;23.354;2022-07-23T09:57:34;4.10;;;3.70;;
1953;SDS011;977;42.704;23.354;2022-07-23T10:00:06;4.37;;;3.30;;
1953;SDS011;977;42.704;23.354;2022-07-23T10:02:34;4.90;;;4.50;;
1953;SDS011;977;42.704;23.354;2022-07-23T10:05:00;5.20;;;3.97;;
1953;SDS011;977;42.704;23.354;2022-07-23T10:07:27;6.80;;;4.07;;
1953;SDS011;977;42.704;23.354;2022-07-23T10:09:58;12.00;;;8.03;;
1953;SDS011;977;42.704;23.354;2022-07-23T10:12:25;4.30;;;3.90;;
1953;SDS011;977;42.704;23.354;2022-07-23T10:15:09;7.70;;;7.00;;
1953;SDS011;977;42.704;23.354;2022-07-23T10:17:35;5.83;;;4.70;;
1953;SDS011;977;42.704;23.354;2022-07-23T10:20:00;6.93;;;4.93;;
1953;SDS011;977;42.704;23.354;2022-07-23T10:22:27;4.43;;;4.13;;
1953;SDS011;977;42.704;23.354;2022-07-23T10:30:34;5.00;;;3.90;;
1953;SDS011;977;42.704;23.354;2022-07-23T10:35:44;3.40;;;3.20;;
1953;SDS011;977;42.704;23.354;2022-07-23T10:38:25;4.60;;;3.57;;
1953;SDS011;977;42.704;23.354;2022-07-23T10:41:06;5.10;;;3.93;;
1953;SDS011;977;42.704;23.354;2022-07-23T10:43:31;3.53;;;2.90;;
1953;SDS011;977;42.704;23.354;2022-07-23T10:54:41;4.93;;;4.17;;
1953;SDS011;977;42.704;23.354;2022-07-23T10:57:27;8.73;;;3.13;;
1953;SDS011;977;42.704;23.354;2022-07-23T11:02:37;3.63;;;3.33;;
1953;SDS011;977;42.704;23.354;2022-07-23T11:05:10;6.90;;;3.23;;
1953;SDS011;977;42.704;23.354;2022-07-23T11:08:10;3.53;;;3.33;;
1953;SDS011;977;42.704;23.354;2022-07-23T11:10:32;5.17;;;3.30;;
1953;SDS011;977;42.704;23.354;2022-07-23T11:32:06;5.67;;;3.40;;
1953;SDS011;977;42.704;23.354;2022-07-23T11:37:07;3.10;;;2.80;;
1953;SDS011;977;42.704;23.354;2022-07-23T11:39:35;4.00;;;3.30;;
1953;SDS011;977;42.704;23.354;2022-07-23T11:42:01;8.67;;;4.00;;
1953;SDS011;977;42.704;23.354;2022-07-23T11:44:34;4.23;;;3.63;;
1953;SDS011;977;42.704;23.354;2022-07-23T11:47:10;7.83;;;4.10;;
1953;SDS011;977;42.704;23.354;2022-07-23T11:49:43;4.13;;;3.40;;
1953;SDS011;977;42.704;23.354;2022-07-23T11:52:17;6.33;;;4.53;;
1953;SDS011;977;42.704;23.354;2022-07-23T11:54:52;4.80;;;3.13;;
1953;SDS011;977;42.704;23.354;2022-07-23T11:57:20;5.73;;;3.13;;
1953;SDS011;977;42.704;23.354;2022-07-23T11:59:51;3.47;;;2.50;;
1953;SDS011;977;42.704;23.354;2022-07-23T12:02:20;4.40;;;3.23;;
1953;SDS011;977;42.704;23.354;2022-07-23T12:04:47;4.37;;;3.17;;
1953;SDS011;977;42.704;23.354;2022-07-23T12:07:33;2.77;;;2.63;;
1953;SDS011;977;42.704;23.354;2022-07-23T12:10:17;5.90;;;2.70;;
1953;SDS011;977;42.704;23.354;2022-07-23T12:12:48;5.30;;;3.40;;
1953;SDS011;977;42.704;23.354;2022-07-23T12:15:15;4.20;;;2.90;;
1953;SDS011;977;42.704;23.354;2022-07-23T12:17:46;3.50;;;3.20;;
1953;SDS011;977;42.704;23.354;2022-07-23T12:20:15;3.00;;;2.77;;
1953;SDS011;977;42.704;23.354;2022-07-23T12:22:46;2.90;;;2.70;;
1953;SDS011;977;42.704;23.354;2022-07-23T12:25:17;4.80;;;4.10;;
1953;SDS011;977;42.704;23.354;2022-07-23T12:27:45;12.17;;;3.20;;
1953;SDS011;977;42.704;23.354;2022-07-23T12:30:21;5.33;;;4.30;;
1953;SDS011;977;42.704;23.354;2022-07-23T12:32:49;9.83;;;3.13;;
1953;SDS011;977;42.704;23.354;2022-07-23T12:35:17;4.43;;;2.87;;
1953;SDS011;977;42.704;23.354;2022-07-23T12:37:44;4.63;;;4.17;;
1953;SDS011;977;42.704;23.354;2022-07-23T12:42:51;12.83;;;3.27;;
1953;SDS011;977;42.704;23.354;2022-07-23T12:45:22;12.40;;;3.27;;
1953;SDS011;977;42.704;23.354;2022-07-23T12:47:51;2.93;;;2.73;;
1953;SDS011;977;42.704;23.354;2022-07-23T12:55:35;3.07;;;2.73;;
1953;SDS011;977;42.704;23.354;2022-07-23T12:58:03;3.90;;;2.70;;
1953;SDS011;977;42.704;23.354;2022-07-23T13:00:29;3.70;;;2.83;;
1953;SDS011;977;42.704;23.354;2022-07-23T13:02:55;4.80;;;3.87;;
1953;SDS011;977;42.704;23.354;2022-07-23T13:05:21;5.80;;;3.10;;
1953;SDS011;977;42.704;23.354;2022-07-23T13:07:46;4.10;;;3.17;;
1953;SDS011;977;42.704;23.354;2022-07-23T13:10:12;6.40;;;3.17;;
1953;SDS011;977;42.704;23.354;2022-07-23T13:12:38;6.70;;;4.10;;
1953;SDS011;977;42.704;23.354;2022-07-23T13:15:04;4.63;;;2.73;;
1953;SDS011;977;42.704;23.354;2022-07-23T13:17:31;5.70;;;3.70;;
1953;SDS011;977;42.704;23.354;2022-07-23T13:19:56;7.77;;;4.00;;
1953;SDS011;977;42.704;23.354;2022-07-23T13:22:22;5.80;;;3.90;;
1953;SDS011;977;42.704;23.354;2022-07-23T13:24:47;6.27;;;2.67;;
1953;SDS011;977;42.704;23.354;2022-07-23T13:27:13;10.20;;;3.70;;
1953;SDS011;977;42.704;23.354;2022-07-23T13:29:38;6.03;;;3.43;;
1953;SDS011;977;42.704;23.354;2022-07-23T13:32:04;11.83;;;3.37;;
1953;SDS011;977;42.704;23.354;2022-07-23T13:34:30;5.37;;;2.60;;
1953;SDS011;977;42.704;23.354;2022-07-23T13:36:55;3.97;;;2.83;;
1953;SDS011;977;42.704;23.354;2022-07-23T13:39:21;9.37;;;2.70;;
1953;SDS011;977;42.704;23.354;2022-07-23T13:41:46;4.77;;;2.80;;
1953;SDS011;977;42.704;23.354;2022-07-23T13:44:11;6.37;;;2.70;;
1953;SDS011;977;42.704;23.354;2022-07-23T13:46:37;3.37;;;3.07;;
1953;SDS011;977;42.704;23.354;2022-07-23T13:49:02;4.83;;;2.77;;
1953;SDS011;977;42.704;23.354;2022-07-23T13:51:28;8.53;;;3.57;;
1953;SDS011;977;42.704;23.354;2022-07-23T13:53:53;7.20;;;3.43;;
1953;SDS011;977;42.704;23.354;2022-07-23T13:56:19;5.30;;;2.77;;
1953;SDS011;977;42.704;23.354;2022-07-23T13:58:45;3.27;;;2.97;;
1953;SDS011;977;42.704;23.354;2022-07-23T14:01:10;7.30;;;3.70;;
1953;SDS011;977;42.704;23.354;2022-07-23T14:03:36;7.40;;;3.23;;
1953;SDS011;977;42.704;23.354;2022-07-23T14:06:01;6.43;;;2.93;;
1953;SDS011;977;42.704;23.354;2022-07-23T14:08:27;7.73;;;2.70;;
1953;SDS011;977;42.704;23.354;2022-07-23T14:10:52;6.50;;;2.70;;
1953;SDS011;977;42.704;23.354;2022-07-23T14:13:18;6.53;;;3.23;;
1953;SDS011;977;42.704;23.354;2022-07-23T14:15:43;7.70;;;4.40;;
1953;SDS011;977;42.704;23.354;2022-07-23T14:18:09;4.37;;;3.10;;
1953;SDS011;977;42.704;23.354;2022-07-23T14:20:34;7.10;;;3.20;;
1953;SDS011;977;42.704;23.354;2022-07-23T14:23:00;8.63;;;4.30;;
1953;SDS011;977;42.704;23.354;2022-07-23T14:25:25;3.03;;;2.40;;
1953;SDS011;977;42.704;23.354;2022-07-23T14:27:51;4.00;;;2.93;;
1953;SDS011;977;42.704;23.354;2022-07-23T14:30:17;5.07;;;3.07;;
1953;SDS011;977;42.704;23.354;2022-07-23T14:32:42;8.73;;;3.17;;
1953;SDS011;977;42.704;23.354;2022-07-23T14:35:08;2.83;;;2.30;;
1953;SDS011;977;42.704;23.354;2022-07-23T14:37:33;5.70;;;4.13;;
1953;SDS011;977;42.704;23.354;2022-07-23T14:39:59;14.33;;;5.63;;
1953;SDS011;977;42.704;23.354;2022-07-23T14:42:25;3.93;;;2.70;;
1953;SDS011;977;42.704;23.354;2022-07-23T14:44:50;7.33;;;2.63;;
1953;SDS011;977;42.704;23.354;2022-07-23T14:47:16;7.37;;;2.90;;
1953;SDS011;977;42.704;23.354;2022-07-23T14:49:41;3.00;;;2.80;;
1953;SDS011;977;42.704;23.354;2022-07-23T14:52:07;2.90;;;2.70;;
1953;SDS011;977;42.704;23.354;2022-07-23T14:54:33;6.67;;;2.50;;
1953;SDS011;977;42.704;23.354;2022-07-23T14:56:59;4.10;;;2.93;;
1953;SDS011;977;42.704;23.354;2022-07-23T14:59:27;4.53;;;2.73;;
1953;SDS011;977;42.704;23.354;2022-07-23T15:01:52;2.70;;;2.50;;
1953;SDS011;977;42.704;23.354;2022-07-23T15:04:19;5.67;;;3.27;;
1953;SDS011;977;42.704;23.354;2022-07-23T15:06:45;4.73;;;2.70;;
1953;SDS011;977;42.704;23.354;2022-07-23T15:09:12;6.00;;;2.67;;
1953;SDS011;977;42.704;23.354;2022-07-23T15:11:38;2.70;;;2.50;;
1953;SDS011;977;42.704;23.354;2022-07-23T15:14:04;4.73;;;3.43;;
1953;SDS011;977;42.704;23.354;2022-07-23T15:16:30;7.30;;;3.63;;
1953;SDS011;977;42.704;23.354;2022-07-23T15:18:57;3.60;;;3.30;;
1953;SDS011;977;42.704;23.354;2022-07-23T15:21:23;6.10;;;3.60;;
1953;SDS011;977;42.704;23.354;2022-07-23T15:23:48;4.83;;;3.77;;
1953;SDS011;977;42.704;23.354;2022-07-23T15:26:14;4.77;;;3.70;;
1953;SDS011;977;42.704;23.354;2022-07-23T15:28:40;5.97;;;3.30;;
1953;SDS011;977;42.704;23.354;2022-07-23T15:31:06;4.30;;;4.00;;
1953;SDS011;977;42.704;23.354;2022-07-23T15:33:32;5.63;;;4.17;;
1953;SDS011;977;42.704;23.354;2022-07-23T15:35:58;3.97;;;3.10;;
1953;SDS011;977;42.704;23.354;2022-07-23T15:38:24;3.23;;;2.97;;
1953;SDS011;977;42.704;23.354;2022-07-23T15:40:50;3.73;;;3.13;;
1953;SDS011;977;42.704;23.354;2022-07-23T15:43:16;4.00;;;2.73;;
1953;SDS011;977;42.704;23.354;2022-07-23T15:45:41;4.07;;;3.27;;
1953;SDS011;977;42.704;23.354;2022-07-23T15:48:07;5.07;;;3.30;;
1953;SDS011;977;42.704;23.354;2022-07-23T15:50:32;8.47;;;3.97;;
1953;SDS011;977;42.704;23.354;2022-07-23T15:52:58;3.80;;;3.50;;
1953;SDS011;977;42.704;23.354;2022-07-23T15:55:23;3.90;;;3.10;;
1953;SDS011;977;42.704;23.354;2022-07-23T15:57:49;3.47;;;3.13;;
1953;SDS011;977;42.704;23.354;2022-07-23T16:00:15;5.40;;;4.20;;
1953;SDS011;977;42.704;23.354;2022-07-23T16:02:41;3.87;;;3.30;;
1953;SDS011;977;42.704;23.354;2022-07-23T16:05:06;13.10;;;3.87;;
1953;SDS011;977;42.704;23.354;2022-07-23T16:07:51;3.27;;;2.97;;
1953;SDS011;977;42.704;23.354;2022-07-23T16:10:16;4.07;;;3.10;;
1953;SDS011;977;42.704;23.354;2022-07-23T16:12:42;6.10;;;3.97;;
1953;SDS011;977;42.704;23.354;2022-07-23T16:15:07;3.07;;;2.87;;
1953;SDS011;977;42.704;23.354;2022-07-23T16:17:33;4.20;;;3.53;;
1953;SDS011;977;42.704;23.354;2022-07-23T16:19:59;4.63;;;4.00;;
1953;SDS011;977;42.704;23.354;2022-07-23T16:22:25;3.33;;;3.10;;
1953;SDS011;977;42.704;23.354;2022-07-23T16:24:50;5.43;;;3.60;;
1953;SDS011;977;42.704;23.354;2022-07-23T16:27:16;3.37;;;3.17;;
1953;SDS011;977;42.704;23.354;2022-07-23T16:29:41;4.60;;;3.00;;
1953;SDS011;977;42.704;23.354;2022-07-23T16:32:07;5.03;;;3.20;;
1953;SDS011;977;42.704;23.354;2022-07-23T16:34:32;5.07;;;3.93;;
1953;SDS011;977;42.704;23.354;2022-07-23T16:36:58;3.80;;;3.50;;
1953;SDS011;977;42.704;23.354;2022-07-23T16:39:24;4.77;;;3.60;;
1953;SDS011;977;42.704;23.354;2022-07-23T16:41:50;5.40;;;3.77;;
1953;SDS011;977;42.704;23.354;2022-07-23T16:44:15;4.80;;;3.97;;
1953;SDS011;977;42.704;23.354;2022-07-23T16:46:42;4.87;;;3.70;;
1953;SDS011;977;42.704;23.354;2022-07-23T16:49:08;11.23;;;3.20;;
1953;SDS011;977;42.704;23.354;2022-07-23T16:51:33;3.67;;;3.37;;
1953;SDS011;977;42.704;23.354;2022-07-23T16:53:59;3.10;;;2.87;;
1953;SDS011;977;42.704;23.354;2022-07-23T16:56:30;3.60;;;3.33;;
1953;SDS011;977;42.704;23.354;2022-07-23T16:58:58;5.27;;;3.30;;
1953;SDS011;977;42.704;23.354;2022-07-23T17:01:24;5.40;;;3.80;;
1953;SDS011;977;42.704;23.354;2022-07-23T17:03:50;5.13;;;3.20;;
1953;SDS011;977;42.704;23.354;2022-07-23T17:06:15;6.00;;;3.63;;
1953;SDS011;977;42.704;23.354;2022-07-23T17:08:41;3.87;;;2.80;;
1953;SDS011;977;42.704;23.354;2022-07-23T17:11:06;6.10;;;3.70;;
1953;SDS011;977;42.704;23.354;2022-07-23T17:13:31;5.57;;;3.57;;
1953;SDS011;977;42.704;23.354;2022-07-23T17:15:57;8.80;;;3.63;;
1953;SDS011;977;42.704;23.354;2022-07-23T17:18:23;12.23;;;3.70;;
1953;SDS011;977;42.704;23.354;2022-07-23T17:20:49;6.10;;;4.23;;
1953;SDS011;977;42.704;23.354;2022-07-23T17:23:15;11.50;;;4.30;;
1953;SDS011;977;42.704;23.354;2022-07-23T17:25:40;5.37;;;4.00;;
1953;SDS011;977;42.704;23.354;2022-07-23T17:28:06;6.73;;;4.10;;
1953;SDS011;977;42.704;23.354;2022-07-23T17:30:32;4.03;;;3.63;;
1953;SDS011;977;42.704;23.354;2022-07-23T17:32:58;4.70;;;3.60;;
1953;SDS011;977;42.704;23.354;2022-07-23T17:35:23;4.20;;;3.30;;
1953;SDS011;977;42.704;23.354;2022-07-23T17:37:49;6.30;;;3.90;;
1953;SDS011;977;42.704;23.354;2022-07-23T17:40:14;8.93;;;3.27;;
1953;SDS011;977;42.704;23.354;2022-07-23T17:42:40;7.80;;;3.80;;
1953;SDS011;977;42.704;23.354;2022-07-23T17:45:06;6.60;;;4.40;;
1953;SDS011;977;42.704;23.354;2022-07-23T17:47:34;8.10;;;4.40;;
1953;SDS011;977;42.704;23.354;2022-07-23T17:50:00;5.93;;;3.77;;
1953;SDS011;977;42.704;23.354;2022-07-23T17:52:25;4.60;;;4.20;;
1953;SDS011;977;42.704;23.354;2022-07-23T17:54:51;6.57;;;4.17;;
1953;SDS011;977;42.704;23.354;2022-07-23T17:57:16;4.37;;;3.97;;
1953;SDS011;977;42.704;23.354;2022-07-23T17:59:42;4.83;;;4.10;;
1953;SDS011;977;42.704;23.354;2022-07-23T18:02:07;6.30;;;3.77;;
1953;SDS011;977;42.704;23.354;2022-07-23T18:04:33;6.53;;;4.47;;
1953;SDS011;977;42.704;23.354;2022-07-23T18:06:58;5.80;;;4.37;;
1953;SDS011;977;42.704;23.354;2022-07-23T18:09:24;6.07;;;4.60;;
1953;SDS011;977;42.704;23.354;2022-07-23T18:11:49;9.30;;;5.47;;
1953;SDS011;977;42.704;23.354;2022-07-23T18:14:15;6.73;;;4.77;;
1953;SDS011;977;42.704;23.354;2022-07-23T18:16:40;7.67;;;4.73;;
1953;SDS011;977;42.704;23.354;2022-07-23T18:19:06;8.77;;;5.23;;
1953;SDS011;977;42.704;23.354;2022-07-23T18:21:32;9.20;;;4.77;;
1953;SDS011;977;42.704;23.354;2022-07-23T18:23:58;6.20;;;5.37;;
1953;SDS011;977;42.704;23.354;2022-07-23T18:26:24;7.47;;;5.80;;
1953;SDS011;977;42.704;23.354;2022-07-23T18:28:49;11.83;;;6.80;;
1953;SDS011;977;42.704;23.354;2022-07-23T18:31:15;10.50;;;5.13;;
1953;SDS011;977;42.704;23.354;2022-07-23T18:33:40;9.70;;;5.60;;
1953;SDS011;977;42.704;23.354;2022-07-23T18:36:06;8.20;;;4.83;;
1953;SDS011;977;42.704;23.354;2022-07-23T18:38:32;5.70;;;5.10;;
1953;SDS011;977;42.704;23.354;2022-07-23T18:40:58;11.47;;;6.07;;
1953;SDS011;977;42.704;23.354;2022-07-23T18:43:23;11.53;;;4.97;;
1953;SDS011;977;42.704;23.354;2022-07-23T18:45:49;9.30;;;5.37;;
1953;SDS011;977;42.704;23.354;2022-07-23T18:48:15;13.60;;;5.87;;
1953;SDS011;977;42.704;23.354;2022-07-23T18:50:44;8.63;;;5.70;;
1953;SDS011;977;42.704;23.354;2022-07-23T18:53:10;8.03;;;5.23;;
1953;SDS011;977;42.704;23.354;2022-07-23T18:55:37;7.50;;;4.40;;
1953;SDS011;977;42.704;23.354;2022-07-23T18:58:04;6.37;;;5.70;;
1953;SDS011;977;42.704;23.354;2022-07-23T19:00:30;8.90;;;5.60;;
1953;SDS011;977;42.704;23.354;2022-07-23T19:02:57;7.40;;;4.87;;
1953;SDS011;977;42.704;23.354;2022-07-23T19:05:23;9.70;;;4.73;;
1953;SDS011;977;42.704;23.354;2022-07-23T19:07:49;5.83;;;5.33;;
1953;SDS011;977;42.704;23.354;2022-07-23T19:10:14;6.63;;;5.00;;
1953;SDS011;977;42.704;23.354;2022-07-23T19:12:40;7.57;;;5.40;;
1953;SDS011;977;42.704;23.354;2022-07-23T19:15:05;11.07;;;5.87;;
1953;SDS011;977;42.704;23.354;2022-07-23T19:17:31;7.40;;;5.50;;
1953;SDS011;977;42.704;23.354;2022-07-23T19:19:57;6.30;;;5.53;;
1953;SDS011;977;42.704;23.354;2022-07-23T19:22:23;8.67;;;4.93;;
1953;SDS011;977;42.704;23.354;2022-07-23T19:24:51;7.30;;;4.80;;
1953;SDS011;977;42.704;23.354;2022-07-23T19:27:17;8.13;;;5.20;;
1953;SDS011;977;42.704;23.354;2022-07-23T19:29:43;7.90;;;4.90;;
1953;SDS011;977;42.704;23.354;2022-07-23T19:32:08;25.80;;;5.03;;
1953;SDS011;977;42.704;23.354;2022-07-23T19:34:33;9.73;;;4.67;;
1953;SDS011;977;42.704;23.354;2022-07-23T19:36:59;6.13;;;4.37;;
1953;SDS011;977;42.704;23.354;2022-07-23T19:39:25;8.23;;;4.80;;
1953;SDS011;977;42.704;23.354;2022-07-23T19:41:51;5.20;;;4.77;;
1953;SDS011;977;42.704;23.354;2022-07-23T19:44:16;6.27;;;5.13;;
1953;SDS011;977;42.704;23.354;2022-07-23T19:46:42;10.07;;;5.60;;
1953;SDS011;977;42.704;23.354;2022-07-23T19:49:07;9.63;;;5.33;;
1953;SDS011;977;42.704;23.354;2022-07-23T19:51:33;8.50;;;5.50;;
1953;SDS011;977;42.704;23.354;2022-07-23T19:53:58;5.77;;;5.07;;
1953;SDS011;977;42.704;23.354;2022-07-23T19:56:24;7.20;;;4.87;;
1953;SDS011;977;42.704;23.354;2022-07-23T19:58:49;6.77;;;5.23;;
1953;SDS011;977;42.704;23.354;2022-07-23T20:01:15;11.20;;;4.70;;
1953;SDS011;977;42.704;23.354;2022-07-23T20:03:41;5.47;;;4.70;;
1953;SDS011;977;42.704;23.354;2022-07-23T20:06:07;6.20;;;4.70;;
1953;SDS011;977;42.704;23.354;2022-07-23T20:08:32;5.70;;;5.13;;
1953;SDS011;977;42.704;23.354;2022-07-23T20:10:58;5.93;;;5.00;;
1953;SDS011;977;42.704;23.354;2022-07-23T20:13:23;7.23;;;5.03;;
1953;SDS011;977;42.704;23.354;2022-07-23T20:15:49;9.07;;;5.30;;
1953;SDS011;977;42.704;23.354;2022-07-23T20:18:15;8.80;;;5.97;;
1953;SDS011;977;42.704;23.354;2022-07-23T20:20:41;7.10;;;5.23;;
1953;SDS011;977;42.704;23.354;2022-07-23T20:23:08;6.47;;;5.07;;
1953;SDS011;977;42.704;23.354;2022-07-23T20:25:33;10.37;;;5.10;;
1953;SDS011;977;42.704;23.354;2022-07-23T20:27:59;6.67;;;5.13;;
1953;SDS011;977;42.704;23.354;2022-07-23T20:30:26;11.00;;;5.70;;
1953;SDS011;977;42.704;23.354;2022-07-23T20:32:52;7.77;;;5.53;;
1953;SDS011;977;42.704;23.354;2022-07-23T20:35:19;9.07;;;6.53;;
1953;SDS011;977;42.704;23.354;2022-07-23T20:37:45;12.77;;;6.27;;
1953;SDS011;977;42.704;23.354;2022-07-23T20:40:10;15.53;;;7.00;;
1953;SDS011;977;42.704;23.354;2022-07-23T20:42:36;12.07;;;6.93;;
1953;SDS011;977;42.704;23.354;2022-07-23T20:45:02;7.17;;;6.30;;
1953;SDS011;977;42.704;23.354;2022-07-23T20:47:28;10.60;;;7.10;;
1953;SDS011;977;42.704;23.354;2022-07-23T20:49:54;13.40;;;6.13;;
1953;SDS011;977;42.704;23.354;2022-07-23T20:52:19;12.20;;;6.47;;
1953;SDS011;977;42.704;23.354;2022-07-23T20:54:45;18.70;;;7.20;;
1953;SDS011;977;42.704;23.354;2022-07-23T20:57:10;7.17;;;5.90;;
1953;SDS011;977;42.704;23.354;2022-07-23T20:59:36;8.23;;;5.33;;
1953;SDS011;977;42.704;23.354;2022-07-23T21:02:02;10.77;;;5.90;;
1953;SDS011;977;42.704;23.354;2022-07-23T21:04:29;6.83;;;5.17;;
1953;SDS011;977;42.704;23.354;2022-07-23T21:06:55;14.63;;;5.90;;
1953;SDS011;977;42.704;23.354;2022-07-23T21:09:20;10.10;;;5.43;;
1953;SDS011;977;42.704;23.354;2022-07-23T21:11:46;19.07;;;6.10;;
1953;SDS011;977;42.704;23.354;2022-07-23T21:14:11;8.70;;;5.57;;
1953;SDS011;977;42.704;23.354;2022-07-23T21:16:37;6.57;;;5.00;;
1953;SDS011;977;42.704;23.354;2022-07-23T21:19:02;18.43;;;6.77;;
1953;SDS011;977;42.704;23.354;2022-07-23T21:21:28;5.10;;;4.70;;
1953;SDS011;977;42.704;23.354;2022-07-23T21:23:54;9.10;;;5.17;;
1953;SDS011;977;42.704;23.354;2022-07-23T21:26:20;12.67;;;5.70;;
1953;SDS011;977;42.704;23.354;2022-07-23T21:28:45;11.20;;;6.13;;
1953;SDS011;977;42.704;23.354;2022-07-23T21:31:11;11.17;;;6.40;;
1953;SDS011;977;42.704;23.354;2022-07-23T21:33:37;9.37;;;5.03;;
1953;SDS011;977;42.704;23.354;2022-07-23T21:36:03;8.43;;;5.30;;
1953;SDS011;977;42.704;23.354;2022-07-23T21:38:28;7.50;;;5.60;;
1953;SDS011;977;42.704;23.354;2022-07-23T21:40:54;11.07;;;4.50;;
1953;SDS011;977;42.704;23.354;2022-07-23T21:43:20;7.83;;;4.00;;
1953;SDS011;977;42.704;23.354;2022-07-23T21:45:47;8.47;;;4.53;;
1953;SDS011;977;42.704;23.354;2022-07-23T21:48:13;20.07;;;4.03;;
1953;SDS011;977;42.704;23.354;2022-07-23T21:50:39;5.97;;;3.83;;
1953;SDS011;977;42.704;23.354;2022-07-23T21:53:04;4.37;;;3.87;;
1953;SDS011;977;42.704;23.354;2022-07-23T21:55:30;7.83;;;4.20;;
1953;SDS011;977;42.704;23.354;2022-07-23T21:57:56;5.80;;;4.03;;
1953;SDS011;977;42.704;23.354;2022-07-23T22:00:22;6.30;;;3.90;;
1953;SDS011;977;42.704;23.354;2022-07-23T22:02:53;5.83;;;4.17;;
1953;SDS011;977;42.704;23.354;2022-07-23T22:05:19;3.50;;;3.13;;
1953;SDS011;977;42.704;23.354;2022-07-23T22:07:45;8.40;;;3.87;;
1953;SDS011;977;42.704;23.354;2022-07-23T22:10:12;6.93;;;3.93;;
1953;SDS011;977;42.704;23.354;2022-07-23T22:12:38;8.27;;;3.47;;
1953;SDS011;977;42.704;23.354;2022-07-23T22:15:04;4.10;;;3.80;;
1953;SDS011;977;42.704;23.354;2022-07-23T22:17:32;5.13;;;3.80;;
1953;SDS011;977;42.704;23.354;2022-07-23T22:19:58;4.07;;;3.37;;
1953;SDS011;977;42.704;23.354;2022-07-23T22:22:23;6.43;;;4.43;;
1953;SDS011;977;42.704;23.354;2022-07-23T22:24:49;4.23;;;3.83;;
1953;SDS011;977;42.704;23.354;2022-07-23T22:27:14;8.53;;;4.03;;
1953;SDS011;977;42.704;23.354;2022-07-23T22:29:40;3.30;;;3.00;;
1953;SDS011;977;42.704;23.354;2022-07-23T22:32:05;4.90;;;3.30;;
1953;SDS011;977;42.704;23.354;2022-07-23T22:34:31;3.67;;;3.30;;
1953;SDS011;977;42.704;23.354;2022-07-23T22:36:57;4.33;;;3.93;;
1953;SDS011;977;42.704;23.354;2022-07-23T22:39:22;7.23;;;3.50;;
1953;SDS011;977;42.704;23.354;2022-07-23T22:41:48;6.40;;;4.47;;
1953;SDS011;977;42.704;23.354;2022-07-23T22:44:13;5.17;;;4.40;;
1953;SDS011;977;42.704;23.354;2022-07-23T22:46:38;4.23;;;3.27;;
1953;SDS011;977;42.704;23.354;2022-07-23T22:49:04;6.00;;;3.60;;
1953;SDS011;977;42.704;23.354;2022-07-23T22:51:29;6.07;;;4.60;;
1953;SDS011;977;42.704;23.354;2022-07-23T22:53:55;4.20;;;3.83;;
1953;SDS011;977;42.704;23.354;2022-07-23T22:56:21;9.97;;;5.40;;
1953;SDS011;977;42.704;23.354;2022-07-23T22:58:47;9.20;;;5.80;;
1953;SDS011;977;42.704;23.354;2022-07-23T23:01:12;6.63;;;4.43;;
1953;SDS011;977;42.704;23.354;2022-07-23T23:03:37;9.37;;;5.80;;
1953;SDS011;977;42.704;23.354;2022-07-23T23:06:03;18.17;;;5.73;;
1953;SDS011;977;42.704;23.354;2022-07-23T23:08:28;7.17;;;5.83;;
1953;SDS011;977;42.704;23.354;2022-07-23T23:10:54;10.00;;;5.83;;
1953;SDS011;977;42.704;23.354;2022-07-23T23:13:19;6.47;;;4.80;;
1953;SDS011;977;42.704;23.354;2022-07-23T23:15:45;8.17;;;4.80;;
1953;SDS011;977;42.704;23.354;2022-07-23T23:18:10;7.03;;;4.83;;
1953;SDS011;977;42.704;23.354;2022-07-23T23:20:36;7.90;;;4.97;;
1953;SDS011;977;42.704;23.354;2022-07-23T23:23:01;5.73;;;4.37;;
1953;SDS011;977;42.704;23.354;2022-07-23T23:25:26;7.73;;;5.57;;
1953;SDS011;977;42.704;23.354;2022-07-23T23:27:52;12.50;;;5.73;;
1953;SDS011;977;42.704;23.354;2022-07-23T23:30:17;6.33;;;5.27;;
1953;SDS011;977;42.704;23.354;2022-07-23T23:32:43;8.83;;;4.80;;
1953;SDS011;977;42.704;23.354;2022-07-23T23:35:08;8.30;;;5.23;;
1953;SDS011;977;42.704;23.354;2022-07-23T23:37:34;6.13;;;4.30;;
1953;SDS011;977;42.704;23.354;2022-07-23T23:39:59;8.77;;;5.10;;
1953;SDS011;977;42.704;23.354;2022-07-23T23:42:25;8.90;;;4.63;;
1953;SDS011;977;42.704;23.354;2022-07-23T23:44:50;8.33;;;4.73;;
1953;SDS011;977;42.704;23.354;2022-07-23T23:47:16;5.10;;;4.37;;
1953;SDS011;977;42.704;23.354;2022-07-23T23:49:41;6.63;;;4.70;;
1953;SDS011;977;42.704;23.354;2022-07-23T23:52:06;9.93;;;5.47;;
1953;SDS011;977;42.704;23.354;2022-07-23T23:54:32;9.20;;;4.40;;
1953;SDS011;977;42.704;23.354;2022-07-23T23:56:57;4.87;;;4.37;;
1953;SDS011;977;42.704;23.354;2022-07-23T23:59:23;12.43;;;4.73;;
